sensor_id;sensor_type;location;lat;lon;timestamp;pressure;altitude;pressure_sealevel;temperature;humidity
13478;BME280;12598;62.382;17.344;2023-02-10T00:00:48;99463.41;;;17.78;22.07
13478;BME280;12598;62.382;17.344;2023-02-10T00:01:49;99466.22;;;17.76;22.16
13478;BME280;12598;62.382;17.344;2023-02-10T00:02:51;99458.41;;;17.75;21.91
13478;BME280;12598;62.382;17.344;2023-02-10T00:03:53;99439.91;;;17.65;21.92
13478;BME280;12598;62.382;17.344;2023-02-10T00:04:56;99434.41;;;17.67;22.13
13478;BME280;12598;62.382;17.344;2023-02-10T00:05:58;99458.56;;;17.73;22.14
13478;BME280;12598;62.382;17.344;2023-02-10T00:07:00;99459.59;;;17.72;21.74
13478;BME280;12598;62.382;17.344;2023-02-10T00:08:02;99457.91;;;17.71;22.01
13478;BME280;12598;62.382;17.344;2023-02-10T00:09:04;99459.78;;;17.71;22.07
13478;BME280;12598;62.382;17.344;2023-02-10T00:10:06;99451.47;;;17.66;21.94
13478;BME280;12598;62.382;17.344;2023-02-10T00:11:10;99448.44;;;17.69;22.02
13478;BME280;12598;62.382;17.344;2023-02-10T00:12:12;99458.94;;;17.70;22.02
13478;BME280;12598;62.382;17.344;2023-02-10T00:13:15;99466.13;;;17.70;21.85
13478;BME280;12598;62.382;17.344;2023-02-10T00:14:18;99460.94;;;17.68;21.89
13478;BME280;12598;62.382;17.344;2023-02-10T00:15:20;99452.78;;;17.62;22.05
13478;BME280;12598;62.382;17.344;2023-02-10T00:16:22;99469.97;;;17.67;21.68
13478;BME280;12598;62.382;17.344;2023-02-10T00:17:24;99473.66;;;17.66;21.91
13478;BME280;12598;62.382;17.344;2023-02-10T00:18:26;99469.31;;;17.65;21.99
13478;BME280;12598;62.382;17.344;2023-02-10T00:19:29;99462.97;;;17.66;21.96
13478;BME280;12598;62.382;17.344;2023-02-10T00:20:32;99478.19;;;17.66;22.13
13478;BME280;12598;62.382;17.344;2023-02-10T00:21:34;99473.66;;;17.66;21.97
13478;BME280;12598;62.382;17.344;2023-02-10T00:22:36;99463.97;;;17.65;22.04
13478;BME280;12598;62.382;17.344;2023-02-10T00:23:38;99453.63;;;17.62;22.02
13478;BME280;12598;62.382;17.344;2023-02-10T00:24:40;99471.69;;;17.60;21.82
13478;BME280;12598;62.382;17.344;2023-02-10T00:25:41;99464.03;;;17.57;21.69
13478;BME280;12598;62.382;17.344;2023-02-10T00:26:43;99456.47;;;17.61;21.88
13478;BME280;12598;62.382;17.344;2023-02-10T00:27:45;99470.47;;;17.63;22.03
13478;BME280;12598;62.382;17.344;2023-02-10T00:28:47;99475.19;;;17.61;21.81
13478;BME280;12598;62.382;17.344;2023-02-10T00:29:49;99476.03;;;17.61;22.18
13478;BME280;12598;62.382;17.344;2023-02-10T00:30:51;99476.03;;;17.61;21.71
13478;BME280;12598;62.382;17.344;2023-02-10T00:31:53;99467.16;;;17.61;22.04
13478;BME280;12598;62.382;17.344;2023-02-10T00:32:55;99476.03;;;17.61;22.06
13478;BME280;12598;62.382;17.344;2023-02-10T00:33:57;99470.03;;;17.59;22.00
13478;BME280;12598;62.382;17.344;2023-02-10T00:35:01;99482.38;;;17.60;21.89
13478;BME280;12598;62.382;17.344;2023-02-10T00:36:08;99470.03;;;17.59;21.91
13478;BME280;12598;62.382;17.344;2023-02-10T00:37:10;99458.84;;;17.56;22.18
13478;BME280;12598;62.382;17.344;2023-02-10T00:38:12;99470.03;;;17.59;22.09
13478;BME280;12598;62.382;17.344;2023-02-10T00:39:14;99483.38;;;17.59;21.79
13478;BME280;12598;62.382;17.344;2023-02-10T00:40:17;99482.53;;;17.59;22.28
13478;BME280;12598;62.382;17.344;2023-02-10T00:41:21;99478.09;;;17.51;21.91
13478;BME280;12598;62.382;17.344;2023-02-10T00:42:23;99486.06;;;17.59;22.06
13478;BME280;12598;62.382;17.344;2023-02-10T00:43:25;99483.38;;;17.59;22.02
13478;BME280;12598;62.382;17.344;2023-02-10T00:44:27;99475.56;;;17.50;21.93
13478;BME280;12598;62.382;17.344;2023-02-10T00:45:30;99465.72;;;17.50;21.98
13478;BME280;12598;62.382;17.344;2023-02-10T00:46:32;99488.06;;;17.57;21.77
13478;BME280;12598;62.382;17.344;2023-02-10T00:47:34;99488.06;;;17.57;21.77
13478;BME280;12598;62.382;17.344;2023-02-10T00:48:35;99486.41;;;17.56;21.72
13478;BME280;12598;62.382;17.344;2023-02-10T00:49:37;99486.41;;;17.56;21.60
13478;BME280;12598;62.382;17.344;2023-02-10T00:50:39;99502.44;;;17.56;21.91
13478;BME280;12598;62.382;17.344;2023-02-10T00:51:41;99493.59;;;17.56;21.99
13478;BME280;12598;62.382;17.344;2023-02-10T00:52:43;99501.59;;;17.56;22.05
13478;BME280;12598;62.382;17.344;2023-02-10T00:53:45;99495.44;;;17.55;21.93
13478;BME280;12598;62.382;17.344;2023-02-10T00:54:50;99504.47;;;17.54;21.54
13478;BME280;12598;62.382;17.344;2023-02-10T00:55:52;99507.13;;;17.54;21.95
13478;BME280;12598;62.382;17.344;2023-02-10T00:56:57;99496.78;;;17.51;21.81
13478;BME280;12598;62.382;17.344;2023-02-10T00:57:59;99499.13;;;17.54;21.66
13478;BME280;12598;62.382;17.344;2023-02-10T00:59:00;99496.59;;;17.53;21.69
13478;BME280;12598;62.382;17.344;2023-02-10T01:00:03;99515.31;;;17.53;21.67
13478;BME280;12598;62.382;17.344;2023-02-10T01:01:07;99504.47;;;17.54;21.69
13478;BME280;12598;62.382;17.344;2023-02-10T01:02:10;99504.63;;;17.53;21.47
13478;BME280;12598;62.382;17.344;2023-02-10T01:03:13;99508.31;;;17.52;22.16
13478;BME280;12598;62.382;17.344;2023-02-10T01:04:15;99514.50;;;17.52;21.65
13478;BME280;12598;62.382;17.344;2023-02-10T01:05:17;99518.19;;;17.51;22.06
13478;BME280;12598;62.382;17.344;2023-02-10T01:06:19;99505.81;;;17.50;21.46
13478;BME280;12598;62.382;17.344;2023-02-10T01:07:21;99499.84;;;17.40;21.76
13478;BME280;12598;62.382;17.344;2023-02-10T01:08:22;99503.16;;;17.42;21.83
13478;BME280;12598;62.382;17.344;2023-02-10T01:09:24;99515.84;;;17.48;21.73
13478;BME280;12598;62.382;17.344;2023-02-10T01:10:26;99526.53;;;17.48;21.83
13478;BME280;12598;62.382;17.344;2023-02-10T01:11:29;99527.34;;;17.49;21.69
13478;BME280;12598;62.382;17.344;2023-02-10T01:12:31;99542.56;;;17.48;21.72
13478;BME280;12598;62.382;17.344;2023-02-10T01:13:34;99534.72;;;17.47;21.65
13478;BME280;12598;62.382;17.344;2023-02-10T01:14:37;99536.22;;;17.49;21.66
13478;BME280;12598;62.382;17.344;2023-02-10T01:15:46;99538.91;;;17.49;21.90
13478;BME280;12598;62.382;17.344;2023-02-10T01:16:49;99538.91;;;17.49;21.83
13478;BME280;12598;62.382;17.344;2023-02-10T01:17:52;99540.72;;;17.49;21.44
13478;BME280;12598;62.382;17.344;2023-02-10T01:18:53;99538.25;;;17.47;21.83
13478;BME280;12598;62.382;17.344;2023-02-10T01:19:55;99531.72;;;17.42;21.82
13478;BME280;12598;62.382;17.344;2023-02-10T01:20:57;99528.56;;;17.46;21.71
13478;BME280;12598;62.382;17.344;2023-02-10T01:21:59;99549.94;;;17.46;21.59
13478;BME280;12598;62.382;17.344;2023-02-10T01:23:01;99548.28;;;17.45;21.66
13478;BME280;12598;62.382;17.344;2023-02-10T01:24:04;99547.41;;;17.45;21.42
13478;BME280;12598;62.382;17.344;2023-02-10T01:25:06;99538.75;;;17.43;21.59
13478;BME280;12598;62.382;17.344;2023-02-10T01:26:08;99551.94;;;17.44;21.28
13478;BME280;12598;62.382;17.344;2023-02-10T01:27:10;99549.28;;;17.44;21.44
13478;BME280;12598;62.382;17.344;2023-02-10T01:28:13;99548.44;;;17.44;21.82
13478;BME280;12598;62.382;17.344;2023-02-10T01:29:15;99555.59;;;17.43;21.51
13478;BME280;12598;62.382;17.344;2023-02-10T01:30:17;99551.94;;;17.44;21.90
13478;BME280;12598;62.382;17.344;2023-02-10T01:31:20;99555.59;;;17.43;21.59
13478;BME280;12598;62.382;17.344;2023-02-10T01:32:22;99560.13;;;17.43;21.58
13478;BME280;12598;62.382;17.344;2023-02-10T01:33:24;99566.28;;;17.43;21.57
13478;BME280;12598;62.382;17.344;2023-02-10T01:34:26;99570.81;;;17.43;21.79
13478;BME280;12598;62.382;17.344;2023-02-10T01:35:28;99579.81;;;17.42;21.60
13478;BME280;12598;62.382;17.344;2023-02-10T01:36:30;99577.97;;;17.42;21.31
13478;BME280;12598;62.382;17.344;2023-02-10T01:37:33;99589.66;;;17.41;21.47
13478;BME280;12598;62.382;17.344;2023-02-10T01:38:35;99582.50;;;17.42;21.24
13478;BME280;12598;62.382;17.344;2023-02-10T01:39:37;99595.66;;;17.43;21.67
13478;BME280;12598;62.382;17.344;2023-02-10T01:40:39;99583.31;;;17.42;21.77
13478;BME280;12598;62.382;17.344;2023-02-10T01:41:41;99595.00;;;17.41;21.38
13478;BME280;12598;62.382;17.344;2023-02-10T01:42:43;99577.31;;;17.40;21.42
13478;BME280;12598;62.382;17.344;2023-02-10T01:45:25;99577.97;;;17.50;21.57
13478;BME280;12598;62.382;17.344;2023-02-10T01:46:30;99582.66;;;17.48;21.46
13478;BME280;12598;62.382;17.344;2023-02-10T01:47:32;99563.63;;;17.35;21.16
13478;BME280;12598;62.382;17.344;2023-02-10T01:48:34;99577.81;;;17.44;21.62
13478;BME280;12598;62.382;17.344;2023-02-10T01:49:40;99589.66;;;17.41;21.34
13478;BME280;12598;62.382;17.344;2023-02-10T01:50:48;99575.31;;;17.42;21.65
13478;BME280;12598;62.382;17.344;2023-02-10T01:51:57;99584.31;;;17.41;21.29
13478;BME280;12598;62.382;17.344;2023-02-10T01:53:02;99564.97;;;17.31;21.31
13478;BME280;12598;62.382;17.344;2023-02-10T01:54:06;99576.00;;;17.36;21.41
13478;BME280;12598;62.382;17.344;2023-02-10T01:55:11;99578.16;;;17.41;21.46
13478;BME280;12598;62.382;17.344;2023-02-10T01:56:15;99567.47;;;17.41;21.16
13478;BME280;12598;62.382;17.344;2023-02-10T01:57:20;99567.81;;;17.38;21.39
13478;BME280;12598;62.382;17.344;2023-02-10T01:58:25;99582.00;;;17.38;21.13
13478;BME280;12598;62.382;17.344;2023-02-10T01:59:32;99578.31;;;17.39;21.22
13478;BME280;12598;62.382;17.344;2023-02-10T02:00:38;99582.66;;;17.40;21.13
13478;BME280;12598;62.382;17.344;2023-02-10T02:01:40;99577.31;;;17.40;21.22
13478;BME280;12598;62.382;17.344;2023-02-10T02:02:43;99579.31;;;17.38;21.26
13478;BME280;12598;62.382;17.344;2023-02-10T02:03:45;99587.88;;;17.34;21.25
13478;BME280;12598;62.382;17.344;2023-02-10T02:05:00;99595.53;;;17.37;21.62
13478;BME280;12598;62.382;17.344;2023-02-10T02:06:02;99589.66;;;17.41;21.51
13478;BME280;12598;62.382;17.344;2023-02-10T02:07:04;99599.69;;;17.39;21.42
13478;BME280;12598;62.382;17.344;2023-02-10T02:09:12;99608.72;;;17.38;21.28
13478;BME280;12598;62.382;17.344;2023-02-10T02:10:15;99598.22;;;17.37;21.27
13478;BME280;12598;62.382;17.344;2023-02-10T02:11:42;99592.34;;;17.41;21.44
13478;BME280;12598;62.382;17.344;2023-02-10T02:12:56;99602.03;;;17.42;21.32
13478;BME280;12598;62.382;17.344;2023-02-10T02:15:27;99593.34;;;17.40;21.39
13478;BME280;12598;62.382;17.344;2023-02-10T02:18:17;99599.69;;;17.47;21.33
13478;BME280;12598;62.382;17.344;2023-02-10T02:23:54;99604.53;;;17.44;20.87
13478;BME280;12598;62.382;17.344;2023-02-10T02:26:40;99604.53;;;17.44;20.94
13478;BME280;12598;62.382;17.344;2023-02-10T02:32:48;99598.69;;;17.40;20.92
13478;BME280;12598;62.382;17.344;2023-02-10T02:34:15;99605.38;;;17.44;21.17
13478;BME280;12598;62.382;17.344;2023-02-10T02:35:32;99627.94;;;17.42;20.93
13478;BME280;12598;62.382;17.344;2023-02-10T02:36:50;99632.94;;;17.37;21.21
13478;BME280;12598;62.382;17.344;2023-02-10T02:37:54;99634.09;;;17.34;21.31
13478;BME280;12598;62.382;17.344;2023-02-10T02:39:01;99647.78;;;17.31;21.54
13478;BME280;12598;62.382;17.344;2023-02-10T02:40:04;99655.13;;;17.29;21.21
13478;BME280;12598;62.382;17.344;2023-02-10T02:41:07;99650.97;;;17.27;21.29
13478;BME280;12598;62.382;17.344;2023-02-10T02:42:15;99658.13;;;17.26;21.25
13478;BME280;12598;62.382;17.344;2023-02-10T02:43:17;99654.66;;;17.26;21.42
13478;BME280;12598;62.382;17.344;2023-02-10T02:44:19;99653.81;;;17.25;21.47
13478;BME280;12598;62.382;17.344;2023-02-10T02:45:27;99641.47;;;17.16;21.54
13478;BME280;12598;62.382;17.344;2023-02-10T02:47:08;99659.47;;;17.30;21.18
13478;BME280;12598;62.382;17.344;2023-02-10T02:50:46;99675.69;;;17.29;21.25
13478;BME280;12598;62.382;17.344;2023-02-10T02:52:00;99671.16;;;17.29;21.36
13478;BME280;12598;62.382;17.344;2023-02-10T02:54:33;99677.19;;;17.23;21.38
13478;BME280;12598;62.382;17.344;2023-02-10T02:55:55;99676.34;;;17.31;21.07
13478;BME280;12598;62.382;17.344;2023-02-10T02:57:11;99671.50;;;17.26;21.37
13478;BME280;12598;62.382;17.344;2023-02-10T02:59:32;99683.84;;;17.27;21.17
13478;BME280;12598;62.382;17.344;2023-02-10T03:00:36;99694.72;;;17.26;21.44
13478;BME280;12598;62.382;17.344;2023-02-10T03:02:01;99678.19;;;17.22;21.48
13478;BME280;12598;62.382;17.344;2023-02-10T03:03:05;99686.69;;;17.26;21.07
13478;BME280;12598;62.382;17.344;2023-02-10T03:04:11;99684.88;;;17.18;21.27
13478;BME280;12598;62.382;17.344;2023-02-10T03:05:19;99681.84;;;17.21;21.52
13478;BME280;12598;62.382;17.344;2023-02-10T03:06:22;99681.84;;;17.21;21.60
13478;BME280;12598;62.382;17.344;2023-02-10T03:07:24;99691.88;;;17.19;21.23
13478;BME280;12598;62.382;17.344;2023-02-10T03:08:28;99698.56;;;17.15;21.40
13478;BME280;12598;62.382;17.344;2023-02-10T03:09:32;99691.22;;;17.09;21.28
13478;BME280;12598;62.382;17.344;2023-02-10T03:10:34;99698.56;;;17.15;21.68
13478;BME280;12598;62.382;17.344;2023-02-10T03:11:36;99717.25;;;17.15;21.38
13478;BME280;12598;62.382;17.344;2023-02-10T03:12:39;99703.91;;;17.15;21.75
13478;BME280;12598;62.382;17.344;2023-02-10T03:13:41;99712.91;;;17.14;21.46
13478;BME280;12598;62.382;17.344;2023-02-10T03:14:42;99724.59;;;17.13;21.50
13478;BME280;12598;62.382;17.344;2023-02-10T03:15:44;99711.25;;;17.13;21.89
13478;BME280;12598;62.382;17.344;2023-02-10T03:16:47;99712.25;;;17.12;21.59
13478;BME280;12598;62.382;17.344;2023-02-10T03:17:48;99706.38;;;17.09;21.26
13478;BME280;12598;62.382;17.344;2023-02-10T03:18:50;99726.41;;;17.13;21.55
13478;BME280;12598;62.382;17.344;2023-02-10T03:19:52;99728.28;;;17.12;21.71
13478;BME280;12598;62.382;17.344;2023-02-10T03:20:54;99724.94;;;17.10;21.71
13478;BME280;12598;62.382;17.344;2023-02-10T03:21:56;99728.41;;;17.11;21.49
13478;BME280;12598;62.382;17.344;2023-02-10T03:22:58;99735.44;;;17.12;21.62
13478;BME280;12598;62.382;17.344;2023-02-10T03:24:00;99742.63;;;17.11;21.78
13478;BME280;12598;62.382;17.344;2023-02-10T03:25:02;99750.63;;;17.11;21.58
13478;BME280;12598;62.382;17.344;2023-02-10T03:26:04;99732.59;;;17.05;21.61
13478;BME280;12598;62.382;17.344;2023-02-10T03:27:06;99746.28;;;17.10;21.83
13478;BME280;12598;62.382;17.344;2023-02-10T03:28:08;99757.97;;;17.09;21.67
13478;BME280;12598;62.382;17.344;2023-02-10T03:29:12;99748.13;;;17.10;21.56
13478;BME280;12598;62.382;17.344;2023-02-10T03:30:14;99756.97;;;17.10;21.58
13478;BME280;12598;62.382;17.344;2023-02-10T03:31:16;99773.00;;;17.10;21.54
13478;BME280;12598;62.382;17.344;2023-02-10T03:32:19;99775.81;;;17.09;21.82
13478;BME280;12598;62.382;17.344;2023-02-10T03:33:21;99775.81;;;17.09;21.84
13478;BME280;12598;62.382;17.344;2023-02-10T03:34:23;99772.34;;;17.08;21.82
13478;BME280;12598;62.382;17.344;2023-02-10T03:35:25;99782.16;;;17.08;21.83
13478;BME280;12598;62.382;17.344;2023-02-10T03:36:27;99773.34;;;17.07;21.82
13478;BME280;12598;62.382;17.344;2023-02-10T03:37:29;99780.00;;;17.03;21.57
13478;BME280;12598;62.382;17.344;2023-02-10T03:38:31;99794.69;;;17.07;21.74
13478;BME280;12598;62.382;17.344;2023-02-10T03:39:33;99801.88;;;17.07;21.73
13478;BME280;12598;62.382;17.344;2023-02-10T03:40:35;99783.97;;;16.99;21.80
13478;BME280;12598;62.382;17.344;2023-02-10T03:41:36;99809.06;;;17.06;21.83
13478;BME280;12598;62.382;17.344;2023-02-10T03:42:38;99802.03;;;17.05;21.60
13478;BME280;12598;62.382;17.344;2023-02-10T03:43:40;99812.72;;;17.05;21.99
13478;BME280;12598;62.382;17.344;2023-02-10T03:44:43;99802.66;;;16.99;21.96
13478;BME280;12598;62.382;17.344;2023-02-10T03:45:45;99827.09;;;17.04;21.62
13478;BME280;12598;62.382;17.344;2023-02-10T03:46:48;99816.41;;;17.04;21.76
13478;BME280;12598;62.382;17.344;2023-02-10T03:47:49;99829.75;;;17.04;21.93
13478;BME280;12598;62.382;17.344;2023-02-10T03:48:51;99835.25;;;17.03;21.93
13478;BME280;12598;62.382;17.344;2023-02-10T03:49:53;99834.41;;;17.02;21.93
13478;BME280;12598;62.382;17.344;2023-02-10T03:50:55;99836.09;;;17.03;21.86
13478;BME280;12598;62.382;17.344;2023-02-10T03:51:57;99839.75;;;17.02;21.69
13478;BME280;12598;62.382;17.344;2023-02-10T03:52:59;99853.13;;;17.02;21.75
13478;BME280;12598;62.382;17.344;2023-02-10T03:54:00;99854.13;;;17.01;22.00
13478;BME280;12598;62.382;17.344;2023-02-10T03:55:02;99851.59;;;17.00;21.93
13478;BME280;12598;62.382;17.344;2023-02-10T03:56:05;99858.59;;;17.01;21.85
13478;BME280;12598;62.382;17.344;2023-02-10T03:57:07;99873.63;;;17.02;21.78
13478;BME280;12598;62.382;17.344;2023-02-10T03:58:09;99878.16;;;17.01;21.81
13478;BME280;12598;62.382;17.344;2023-02-10T03:59:11;99876.44;;;17.00;21.87
13478;BME280;12598;62.382;17.344;2023-02-10T04:00:14;99870.28;;;17.00;21.82
13478;BME280;12598;62.382;17.344;2023-02-10T04:01:17;99885.31;;;17.01;22.04
13478;BME280;12598;62.382;17.344;2023-02-10T04:02:19;99879.13;;;17.00;22.09
13478;BME280;12598;62.382;17.344;2023-02-10T04:03:21;99883.09;;;16.96;22.14
13478;BME280;12598;62.382;17.344;2023-02-10T04:04:23;99889.78;;;17.00;21.97
13478;BME280;12598;62.382;17.344;2023-02-10T04:05:25;99900.47;;;17.00;22.19
13478;BME280;12598;62.382;17.344;2023-02-10T04:06:27;99905.81;;;17.00;21.90
13478;BME280;12598;62.382;17.344;2023-02-10T04:07:29;99927.19;;;17.00;22.01
13478;BME280;12598;62.382;17.344;2023-02-10T04:08:30;99922.34;;;16.96;21.86
13478;BME280;12598;62.382;17.344;2023-02-10T04:09:32;99910.81;;;16.95;22.04
13478;BME280;12598;62.382;17.344;2023-02-10T04:10:34;99913.81;;;16.92;21.90
13478;BME280;12598;62.382;17.344;2023-02-10T04:11:36;99926.50;;;16.98;22.15
13478;BME280;12598;62.382;17.344;2023-02-10T04:12:38;99934.38;;;17.00;21.91
13478;BME280;12598;62.382;17.344;2023-02-10T04:13:41;99930.03;;;16.99;21.74
13478;BME280;12598;62.382;17.344;2023-02-10T04:14:43;99941.53;;;16.99;21.87
13478;BME280;12598;62.382;17.344;2023-02-10T04:15:44;99917.97;;;16.87;21.84
13478;BME280;12598;62.382;17.344;2023-02-10T04:16:47;99950.53;;;16.98;22.05
13478;BME280;12598;62.382;17.344;2023-02-10T04:17:49;99947.88;;;16.98;22.07
13478;BME280;12598;62.382;17.344;2023-02-10T04:18:50;99938.19;;;16.97;22.10
13478;BME280;12598;62.382;17.344;2023-02-10T04:19:52;99941.34;;;16.93;22.17
13478;BME280;12598;62.382;17.344;2023-02-10T04:20:54;99951.53;;;16.97;21.94
13478;BME280;12598;62.382;17.344;2023-02-10T04:21:56;99969.41;;;16.97;21.84
13478;BME280;12598;62.382;17.344;2023-02-10T04:22:58;99973.91;;;16.96;21.87
13478;BME280;12598;62.382;17.344;2023-02-10T04:24:00;99978.41;;;16.96;21.95
13478;BME280;12598;62.382;17.344;2023-02-10T04:25:02;99974.75;;;16.97;22.19
13478;BME280;12598;62.382;17.344;2023-02-10T04:26:04;99982.41;;;16.92;21.66
13478;BME280;12598;62.382;17.344;2023-02-10T04:27:06;99991.25;;;16.92;22.05
13478;BME280;12598;62.382;17.344;2023-02-10T04:28:08;100004.25;;;16.95;21.91
13478;BME280;12598;62.382;17.344;2023-02-10T04:29:09;99983.72;;;16.88;22.12
13478;BME280;12598;62.382;17.344;2023-02-10T04:30:11;100000.91;;;16.93;22.01
13478;BME280;12598;62.382;17.344;2023-02-10T04:31:14;100023.13;;;16.94;22.14
13478;BME280;12598;62.382;17.344;2023-02-10T04:32:16;100015.13;;;16.94;21.90
13478;BME280;12598;62.382;17.344;2023-02-10T04:33:18;100030.28;;;16.93;21.98
13478;BME280;12598;62.382;17.344;2023-02-10T04:34:20;100030.16;;;16.95;21.99
13478;BME280;12598;62.382;17.344;2023-02-10T04:35:21;100042.28;;;16.89;21.86
13478;BME280;12598;62.382;17.344;2023-02-10T04:36:23;100049.84;;;16.94;22.12
13478;BME280;12598;62.382;17.344;2023-02-10T04:37:25;100042.81;;;16.93;21.91
13478;BME280;12598;62.382;17.344;2023-02-10T04:38:27;100058.00;;;16.92;22.11
13478;BME280;12598;62.382;17.344;2023-02-10T04:39:29;100049.97;;;16.92;21.69
13478;BME280;12598;62.382;17.344;2023-02-10T04:40:31;100050.28;;;16.89;22.10
13478;BME280;12598;62.382;17.344;2023-02-10T04:41:33;100054.13;;;16.87;21.89
13478;BME280;12598;62.382;17.344;2023-02-10T04:42:34;100046.50;;;16.92;21.81
13478;BME280;12598;62.382;17.344;2023-02-10T04:43:36;100067.00;;;16.91;21.69
13478;BME280;12598;62.382;17.344;2023-02-10T04:44:38;100060.28;;;16.87;21.75
13478;BME280;12598;62.382;17.344;2023-02-10T04:45:40;100065.31;;;16.90;22.09
13478;BME280;12598;62.382;17.344;2023-02-10T04:46:42;100051.16;;;16.90;21.96
13478;BME280;12598;62.382;17.344;2023-02-10T04:47:44;100071.50;;;16.91;21.65
13478;BME280;12598;62.382;17.344;2023-02-10T04:48:46;100057.81;;;16.86;21.47
13478;BME280;12598;62.382;17.344;2023-02-10T04:49:48;100078.66;;;16.90;21.67
13478;BME280;12598;62.382;17.344;2023-02-10T04:50:50;100074.50;;;16.88;21.68
13478;BME280;12598;62.382;17.344;2023-02-10T04:51:54;100075.19;;;16.90;21.78
13478;BME280;12598;62.382;17.344;2023-02-10T04:52:56;100090.34;;;16.89;21.82
13478;BME280;12598;62.382;17.344;2023-02-10T04:53:58;100093.03;;;16.89;21.96
13478;BME280;12598;62.382;17.344;2023-02-10T04:55:00;100094.19;;;16.87;21.75
13478;BME280;12598;62.382;17.344;2023-02-10T04:56:02;100097.69;;;16.87;21.77
13478;BME280;12598;62.382;17.344;2023-02-10T04:57:05;100099.34;;;16.88;21.69
13478;BME280;12598;62.382;17.344;2023-02-10T04:58:07;100097.84;;;16.86;21.61
13478;BME280;12598;62.382;17.344;2023-02-10T04:59:09;100113.00;;;16.85;21.44
13478;BME280;12598;62.382;17.344;2023-02-10T05:00:11;100107.69;;;16.85;21.67
13478;BME280;12598;62.382;17.344;2023-02-10T05:01:13;100112.03;;;16.86;21.43
13478;BME280;12598;62.382;17.344;2023-02-10T05:02:15;100095.31;;;16.84;21.20
13478;BME280;12598;62.382;17.344;2023-02-10T05:03:17;100114.00;;;16.84;21.44
13478;BME280;12598;62.382;17.344;2023-02-10T05:04:19;100127.53;;;16.83;21.32
13478;BME280;12598;62.382;17.344;2023-02-10T05:05:21;100117.16;;;16.80;21.33
13478;BME280;12598;62.382;17.344;2023-02-10T05:06:25;100116.63;;;16.76;21.31
13478;BME280;12598;62.382;17.344;2023-02-10T05:07:27;100134.69;;;16.82;21.43
13478;BME280;12598;62.382;17.344;2023-02-10T05:08:29;100129.34;;;16.82;21.30
13478;BME280;12598;62.382;17.344;2023-02-10T05:09:30;100127.66;;;16.81;21.11
13478;BME280;12598;62.382;17.344;2023-02-10T05:10:32;100151.69;;;16.81;21.16
13478;BME280;12598;62.382;17.344;2023-02-10T05:11:34;100133.00;;;16.81;21.23
13478;BME280;12598;62.382;17.344;2023-02-10T05:12:36;100147.34;;;16.80;21.26
13478;BME280;12598;62.382;17.344;2023-02-10T05:13:39;100148.34;;;16.79;21.42
13478;BME280;12598;62.382;17.344;2023-02-10T05:14:43;100141.94;;;16.72;21.10
13478;BME280;12598;62.382;17.344;2023-02-10T05:15:46;100167.03;;;16.79;21.51
13478;BME280;12598;62.382;17.344;2023-02-10T05:16:48;100168.84;;;16.79;21.00
13478;BME280;12598;62.382;17.344;2023-02-10T05:17:50;100164.38;;;16.79;21.44
13478;BME280;12598;62.382;17.344;2023-02-10T05:18:52;100179.53;;;16.79;21.43
13478;BME280;12598;62.382;17.344;2023-02-10T05:19:54;100172.81;;;16.75;21.16
13478;BME280;12598;62.382;17.344;2023-02-10T05:20:57;100187.72;;;16.77;21.50
13478;BME280;12598;62.382;17.344;2023-02-10T05:21:59;100189.38;;;16.78;21.43
13478;BME280;12598;62.382;17.344;2023-02-10T05:23:01;100186.84;;;16.77;21.21
13478;BME280;12598;62.382;17.344;2023-02-10T05:24:03;100195.72;;;16.77;21.11
13478;BME280;12598;62.382;17.344;2023-02-10T05:25:06;100184.19;;;16.77;21.34
13478;BME280;12598;62.382;17.344;2023-02-10T05:26:08;100208.22;;;16.77;21.29
13478;BME280;12598;62.382;17.344;2023-02-10T05:27:10;100194.03;;;16.76;21.31
13478;BME280;12598;62.382;17.344;2023-02-10T05:28:12;100184.66;;;16.72;21.40
13478;BME280;12598;62.382;17.344;2023-02-10T05:29:14;100215.41;;;16.76;21.38
13478;BME280;12598;62.382;17.344;2023-02-10T05:30:16;100214.34;;;16.69;21.14
13478;BME280;12598;62.382;17.344;2023-02-10T05:31:18;100222.72;;;16.74;21.07
13478;BME280;12598;62.382;17.344;2023-02-10T05:32:20;100220.06;;;16.74;21.21
13478;BME280;12598;62.382;17.344;2023-02-10T05:33:22;100227.22;;;16.74;21.06
13478;BME280;12598;62.382;17.344;2023-02-10T05:34:24;100242.41;;;16.73;21.20
13478;BME280;12598;62.382;17.344;2023-02-10T05:35:27;100219.66;;;16.69;21.02
13478;BME280;12598;62.382;17.344;2023-02-10T05:36:29;100241.41;;;16.74;21.39
13478;BME280;12598;62.382;17.344;2023-02-10T05:37:31;100238.88;;;16.73;21.11
13478;BME280;12598;62.382;17.344;2023-02-10T05:38:33;100243.38;;;16.72;21.11
13478;BME280;12598;62.382;17.344;2023-02-10T05:39:34;100229.41;;;16.61;21.08
13478;BME280;12598;62.382;17.344;2023-02-10T05:40:36;100241.72;;;16.71;21.01
13478;BME280;12598;62.382;17.344;2023-02-10T05:41:38;100251.41;;;16.72;21.18
13478;BME280;12598;62.382;17.344;2023-02-10T05:42:40;100248.72;;;16.72;20.94
13478;BME280;12598;62.382;17.344;2023-02-10T05:43:42;100261.22;;;16.72;21.42
13478;BME280;12598;62.382;17.344;2023-02-10T05:44:44;100250.41;;;16.73;21.37
13478;BME280;12598;62.382;17.344;2023-02-10T05:45:46;100264.75;;;16.72;21.23
13478;BME280;12598;62.382;17.344;2023-02-10T05:46:50;100247.75;;;16.73;21.23
13478;BME280;12598;62.382;17.344;2023-02-10T05:47:52;100240.03;;;16.70;21.10
13478;BME280;12598;62.382;17.344;2023-02-10T05:48:54;100255.75;;;16.73;21.37
13478;BME280;12598;62.382;17.344;2023-02-10T05:49:56;100257.03;;;16.69;21.03
13478;BME280;12598;62.382;17.344;2023-02-10T05:50:57;100269.00;;;16.65;21.13
13478;BME280;12598;62.382;17.344;2023-02-10T05:51:59;100255.66;;;16.65;21.30